sensor_id;sensor_type;location;lat;lon;timestamp;pressure;altitude;pressure_sealevel;temperature;humidity
63033;BME280;49121;38.932;-9.018;2023-04-06T00:01:03;111992.50;;;-145.11;32.14
63033;BME280;49121;38.932;-9.018;2023-04-06T00:03:04;111992.50;;;-145.11;31.97
63033;BME280;49121;38.932;-9.018;2023-04-06T00:05:04;111992.50;;;-145.11;31.71
63033;BME280;49121;38.932;-9.018;2023-04-06T00:07:05;111992.50;;;-145.11;31.51
63033;BME280;49121;38.932;-9.018;2023-04-06T00:09:05;111992.50;;;-145.11;31.53
63033;BME280;49121;38.932;-9.018;2023-04-06T00:11:06;111992.50;;;-145.11;31.51
63033;BME280;49121;38.932;-9.018;2023-04-06T00:13:06;111992.50;;;-145.11;31.27
63033;BME280;49121;38.932;-9.018;2023-04-06T00:15:09;111992.50;;;-145.11;31.16
63033;BME280;49121;38.932;-9.018;2023-04-06T00:21:51;111992.50;;;-145.11;31.22
63033;BME280;49121;38.932;-9.018;2023-04-06T00:23:52;111992.50;;;-145.11;31.46
63033;BME280;49121;38.932;-9.018;2023-04-06T00:25:52;111992.50;;;-145.11;31.88
63033;BME280;49121;38.932;-9.018;2023-04-06T00:27:53;111992.50;;;-145.11;31.96
63033;BME280;49121;38.932;-9.018;2023-04-06T00:29:57;111992.50;;;-145.11;32.31
63033;BME280;49121;38.932;-9.018;2023-04-06T00:31:58;111992.50;;;-145.11;32.67
63033;BME280;49121;38.932;-9.018;2023-04-06T00:34:03;111992.50;;;-145.11;32.73
63033;BME280;49121;38.932;-9.018;2023-04-06T00:36:03;111992.50;;;-145.11;33.04
63033;BME280;49121;38.932;-9.018;2023-04-06T00:45:11;111992.50;;;-145.11;34.00
63033;BME280;49121;38.932;-9.018;2023-04-06T00:47:30;111992.50;;;-145.11;34.43
63033;BME280;49121;38.932;-9.018;2023-04-06T00:49:31;111992.50;;;-145.11;34.81
63033;BME280;49121;38.932;-9.018;2023-04-06T00:51:32;111992.50;;;-145.11;35.25
63033;BME280;49121;38.932;-9.018;2023-04-06T00:53:33;111992.50;;;-145.11;35.57
63033;BME280;49121;38.932;-9.018;2023-04-06T01:03:01;111992.50;;;-145.11;34.78
63033;BME280;49121;38.932;-9.018;2023-04-06T01:05:10;111992.50;;;-145.11;34.55
63033;BME280;49121;38.932;-9.018;2023-04-06T01:07:30;111992.50;;;-145.11;34.68
63033;BME280;49121;38.932;-9.018;2023-04-06T01:09:44;111992.50;;;-145.11;35.04
63033;BME280;49121;38.932;-9.018;2023-04-06T01:11:52;111992.50;;;-145.11;34.83
63033;BME280;49121;38.932;-9.018;2023-04-06T01:13:56;111992.50;;;-145.11;34.51
63033;BME280;49121;38.932;-9.018;2023-04-06T01:16:15;111992.50;;;-145.11;34.41
63033;BME280;49121;38.932;-9.018;2023-04-06T01:18:37;111992.50;;;-145.11;34.21
63033;BME280;49121;38.932;-9.018;2023-04-06T01:20:50;111992.50;;;-145.11;34.17
63033;BME280;49121;38.932;-9.018;2023-04-06T01:30:37;111992.50;;;-145.11;33.82
63033;BME280;49121;38.932;-9.018;2023-04-06T01:32:48;111992.50;;;-145.11;33.82
63033;BME280;49121;38.932;-9.018;2023-04-06T01:35:08;111992.50;;;-145.11;33.88
63033;BME280;49121;38.932;-9.018;2023-04-06T01:37:15;111992.50;;;-145.11;33.92
63033;BME280;49121;38.932;-9.018;2023-04-06T01:39:17;111992.50;;;-145.11;33.96
63033;BME280;49121;38.932;-9.018;2023-04-06T01:41:17;111992.50;;;-145.11;34.04
63033;BME280;49121;38.932;-9.018;2023-04-06T01:43:22;111992.50;;;-145.11;33.93
63033;BME280;49121;38.932;-9.018;2023-04-06T01:45:41;111992.50;;;-145.11;34.03
63033;BME280;49121;38.932;-9.018;2023-04-06T01:47:49;111992.50;;;-145.11;33.85
63033;BME280;49121;38.932;-9.018;2023-04-06T01:49:49;111992.50;;;-145.11;33.80
63033;BME280;49121;38.932;-9.018;2023-04-06T01:51:51;111992.50;;;-145.11;33.73
63033;BME280;49121;38.932;-9.018;2023-04-06T01:53:52;111992.50;;;-145.11;33.65
63033;BME280;49121;38.932;-9.018;2023-04-06T01:55:56;111992.50;;;-145.11;33.45
63033;BME280;49121;38.932;-9.018;2023-04-06T01:58:04;111992.50;;;-145.11;33.04
63033;BME280;49121;38.932;-9.018;2023-04-06T02:00:10;111992.50;;;-145.11;32.84
63033;BME280;49121;38.932;-9.018;2023-04-06T02:07:29;111992.50;;;-145.11;32.30
63033;BME280;49121;38.932;-9.018;2023-04-06T02:09:30;111992.50;;;-145.11;32.37
63033;BME280;49121;38.932;-9.018;2023-04-06T02:11:31;111992.50;;;-145.11;32.17
63033;BME280;49121;38.932;-9.018;2023-04-06T02:13:31;111992.50;;;-145.11;32.02
63033;BME280;49121;38.932;-9.018;2023-04-06T02:15:32;111992.50;;;-145.11;31.98
63033;BME280;49121;38.932;-9.018;2023-04-06T02:17:33;111992.50;;;-145.11;31.69
63033;BME280;49121;38.932;-9.018;2023-04-06T02:19:33;111992.50;;;-145.11;31.48
63033;BME280;49121;38.932;-9.018;2023-04-06T02:23:53;111992.50;;;-145.11;31.75
63033;BME280;49121;38.932;-9.018;2023-04-06T02:25:54;111992.50;;;-145.11;31.83
63033;BME280;49121;38.932;-9.018;2023-04-06T02:27:54;111992.50;;;-145.11;31.87
63033;BME280;49121;38.932;-9.018;2023-04-06T02:29:55;111992.50;;;-145.11;31.72
63033;BME280;49121;38.932;-9.018;2023-04-06T02:31:56;111992.50;;;-145.11;31.51
63033;BME280;49121;38.932;-9.018;2023-04-06T02:33:57;111992.50;;;-145.11;31.36
63033;BME280;49121;38.932;-9.018;2023-04-06T02:35:58;111992.50;;;-145.11;31.19
63033;BME280;49121;38.932;-9.018;2023-04-06T02:37:58;111992.50;;;-145.11;30.90
63033;BME280;49121;38.932;-9.018;2023-04-06T02:40:18;111992.50;;;-145.11;30.83
63033;BME280;49121;38.932;-9.018;2023-04-06T02:42:18;111992.50;;;-145.11;30.70
63033;BME280;49121;38.932;-9.018;2023-04-06T02:44:22;111992.50;;;-145.11;31.17
63033;BME280;49121;38.932;-9.018;2023-04-06T02:46:23;111992.50;;;-145.11;30.84
63033;BME280;49121;38.932;-9.018;2023-04-06T02:48:23;111992.50;;;-145.11;30.75
63033;BME280;49121;38.932;-9.018;2023-04-06T02:50:24;111992.50;;;-145.11;30.90
63033;BME280;49121;38.932;-9.018;2023-04-06T02:52:32;111992.50;;;-145.11;30.89
63033;BME280;49121;38.932;-9.018;2023-04-06T02:54:32;111992.50;;;-145.11;30.94
63033;BME280;49121;38.932;-9.018;2023-04-06T02:56:34;111992.50;;;-145.11;31.01
63033;BME280;49121;38.932;-9.018;2023-04-06T02:58:35;111992.50;;;-145.11;30.98
63033;BME280;49121;38.932;-9.018;2023-04-06T03:00:36;111992.50;;;-145.11;31.08
63033;BME280;49121;38.932;-9.018;2023-04-06T03:02:37;111992.50;;;-145.11;31.14
63033;BME280;49121;38.932;-9.018;2023-04-06T03:04:42;111992.50;;;-145.11;31.11
63033;BME280;49121;38.932;-9.018;2023-04-06T03:09:13;111992.50;;;-145.11;31.74
63033;BME280;49121;38.932;-9.018;2023-04-06T03:11:17;111992.50;;;-145.11;31.94
63033;BME280;49121;38.932;-9.018;2023-04-06T03:13:17;111992.50;;;-145.11;31.91
63033;BME280;49121;38.932;-9.018;2023-04-06T03:15:36;111992.50;;;-145.11;32.47
63033;BME280;49121;38.932;-9.018;2023-04-06T03:17:55;111992.50;;;-145.11;33.32
63033;BME280;49121;38.932;-9.018;2023-04-06T03:20:14;111992.50;;;-145.11;34.26
63033;BME280;49121;38.932;-9.018;2023-04-06T03:22:33;111992.50;;;-145.11;34.10
63033;BME280;49121;38.932;-9.018;2023-04-06T03:24:35;111992.50;;;-145.11;34.55
63033;BME280;49121;38.932;-9.018;2023-04-06T03:26:35;111992.50;;;-145.11;34.97
63033;BME280;49121;38.932;-9.018;2023-04-06T03:28:39;111992.50;;;-145.11;35.53
63033;BME280;49121;38.932;-9.018;2023-04-06T03:30:41;111992.50;;;-145.11;36.01
63033;BME280;49121;38.932;-9.018;2023-04-06T03:33:00;111992.50;;;-145.11;36.33
63033;BME280;49121;38.932;-9.018;2023-04-06T03:35:05;111992.50;;;-145.11;36.65
63033;BME280;49121;38.932;-9.018;2023-04-06T03:37:05;111992.50;;;-145.11;37.34
63033;BME280;49121;38.932;-9.018;2023-04-06T03:39:06;111992.50;;;-145.11;37.75
63033;BME280;49121;38.932;-9.018;2023-04-06T03:41:09;111992.50;;;-145.11;38.07
63033;BME280;49121;38.932;-9.018;2023-04-06T03:43:10;111992.50;;;-145.11;37.84
63033;BME280;49121;38.932;-9.018;2023-04-06T03:45:14;111992.50;;;-145.11;37.88
63033;BME280;49121;38.932;-9.018;2023-04-06T03:47:20;111992.50;;;-145.11;38.36
63033;BME280;49121;38.932;-9.018;2023-04-06T03:49:20;111992.50;;;-145.11;38.85
63033;BME280;49121;38.932;-9.018;2023-04-06T03:56:55;111992.50;;;-145.11;39.21
63033;BME280;49121;38.932;-9.018;2023-04-06T04:01:56;111992.50;;;-145.11;39.61
63033;BME280;49121;38.932;-9.018;2023-04-06T04:04:15;111992.50;;;-145.11;40.18
63033;BME280;49121;38.932;-9.018;2023-04-06T04:06:16;111992.50;;;-145.11;41.10
63033;BME280;49121;38.932;-9.018;2023-04-06T04:08:16;111992.50;;;-145.11;42.16
63033;BME280;49121;38.932;-9.018;2023-04-06T04:10:17;111992.50;;;-145.11;42.75
63033;BME280;49121;38.932;-9.018;2023-04-06T04:12:18;111992.50;;;-145.11;44.22
63033;BME280;49121;38.932;-9.018;2023-04-06T04:14:22;111992.50;;;-145.11;44.06
63033;BME280;49121;38.932;-9.018;2023-04-06T04:16:22;111992.50;;;-145.11;44.88
63033;BME280;49121;38.932;-9.018;2023-04-06T04:18:23;111992.50;;;-145.11;45.66
63033;BME280;49121;38.932;-9.018;2023-04-06T04:20:24;111992.50;;;-145.11;45.75
63033;BME280;49121;38.932;-9.018;2023-04-06T04:22:25;111992.50;;;-145.11;46.03
63033;BME280;49121;38.932;-9.018;2023-04-06T04:26:44;111992.50;;;-145.11;46.56
63033;BME280;49121;38.932;-9.018;2023-04-06T04:28:45;111992.50;;;-145.11;46.28
63033;BME280;49121;38.932;-9.018;2023-04-06T04:30:46;111992.50;;;-145.11;46.42
63033;BME280;49121;38.932;-9.018;2023-04-06T04:32:47;111992.50;;;-145.11;46.69
63033;BME280;49121;38.932;-9.018;2023-04-06T04:34:51;111992.50;;;-145.11;45.93
63033;BME280;49121;38.932;-9.018;2023-04-06T04:37:05;111992.50;;;-145.11;45.53
63033;BME280;49121;38.932;-9.018;2023-04-06T04:39:26;111992.50;;;-145.11;45.46
63033;BME280;49121;38.932;-9.018;2023-04-06T04:41:34;111992.50;;;-145.11;45.64
63033;BME280;49121;38.932;-9.018;2023-04-06T04:43:36;111992.50;;;-145.11;45.55
63033;BME280;49121;38.932;-9.018;2023-04-06T04:45:37;111992.50;;;-145.11;45.44
63033;BME280;49121;38.932;-9.018;2023-04-06T04:50:31;111992.50;;;-145.11;45.27
63033;BME280;49121;38.932;-9.018;2023-04-06T04:52:32;111992.50;;;-145.11;45.22
63033;BME280;49121;38.932;-9.018;2023-04-06T04:54:51;111992.50;;;-145.11;44.96
63033;BME280;49121;38.932;-9.018;2023-04-06T04:56:58;111992.50;;;-145.11;45.08
63033;BME280;49121;38.932;-9.018;2023-04-06T04:59:14;111992.50;;;-145.11;45.49
63033;BME280;49121;38.932;-9.018;2023-04-06T05:01:25;111992.50;;;-145.11;45.54
63033;BME280;49121;38.932;-9.018;2023-04-06T05:06:07;111992.50;;;-145.11;46.68
63033;BME280;49121;38.932;-9.018;2023-04-06T05:08:12;111992.50;;;-145.11;46.88
63033;BME280;49121;38.932;-9.018;2023-04-06T05:10:21;111992.50;;;-145.11;46.73
63033;BME280;49121;38.932;-9.018;2023-04-06T05:12:29;111992.50;;;-145.11;47.25
63033;BME280;49121;38.932;-9.018;2023-04-06T05:14:39;111992.50;;;-145.11;47.99
63033;BME280;49121;38.932;-9.018;2023-04-06T05:16:46;111992.50;;;-145.11;48.09
63033;BME280;49121;38.932;-9.018;2023-04-06T05:18:47;111992.50;;;-145.11;48.11
63033;BME280;49121;38.932;-9.018;2023-04-06T05:20:48;111992.50;;;-145.11;48.34
63033;BME280;49121;38.932;-9.018;2023-04-06T05:23:08;111992.50;;;-145.11;48.36
63033;BME280;49121;38.932;-9.018;2023-04-06T05:25:09;111992.50;;;-145.11;48.70
63033;BME280;49121;38.932;-9.018;2023-04-06T05:27:10;111992.50;;;-145.11;48.72
63033;BME280;49121;38.932;-9.018;2023-04-06T05:29:12;111992.50;;;-145.11;48.72
63033;BME280;49121;38.932;-9.018;2023-04-06T05:31:13;111992.50;;;-145.11;49.07
63033;BME280;49121;38.932;-9.018;2023-04-06T05:33:20;111992.50;;;-145.11;49.35
63033;BME280;49121;38.932;-9.018;2023-04-06T05:35:40;111992.50;;;-145.11;49.88
63033;BME280;49121;38.932;-9.018;2023-04-06T05:40:22;111992.50;;;-145.11;50.46
63033;BME280;49121;38.932;-9.018;2023-04-06T05:42:24;111992.50;;;-145.11;50.48
63033;BME280;49121;38.932;-9.018;2023-04-06T05:44:27;111992.50;;;-145.11;50.82
63033;BME280;49121;38.932;-9.018;2023-04-06T05:54:11;111992.50;;;-145.11;51.06
63033;BME280;49121;38.932;-9.018;2023-04-06T05:56:30;111992.50;;;-145.11;51.63
63033;BME280;49121;38.932;-9.018;2023-04-06T05:58:34;111992.50;;;-145.11;51.28
63033;BME280;49121;38.932;-9.018;2023-04-06T06:00:34;111992.50;;;-145.11;51.87
63033;BME280;49121;38.932;-9.018;2023-04-06T06:02:39;111992.50;;;-145.11;52.17
63033;BME280;49121;38.932;-9.018;2023-04-06T06:04:42;111992.50;;;-145.11;52.53
63033;BME280;49121;38.932;-9.018;2023-04-06T06:06:42;111992.50;;;-145.11;53.13
63033;BME280;49121;38.932;-9.018;2023-04-06T06:08:56;111992.50;;;-145.11;53.27
63033;BME280;49121;38.932;-9.018;2023-04-06T06:11:13;111992.50;;;-145.11;53.67
63033;BME280;49121;38.932;-9.018;2023-04-06T06:13:13;111992.50;;;-145.11;53.77
63033;BME280;49121;38.932;-9.018;2023-04-06T06:15:14;111992.50;;;-145.11;53.87
63033;BME280;49121;38.932;-9.018;2023-04-06T06:17:18;111992.50;;;-145.11;53.84
63033;BME280;49121;38.932;-9.018;2023-04-06T06:19:21;111992.50;;;-145.11;53.73
63033;BME280;49121;38.932;-9.018;2023-04-06T06:21:22;111992.50;;;-145.11;53.40
63033;BME280;49121;38.932;-9.018;2023-04-06T06:23:23;111992.50;;;-145.11;53.40
63033;BME280;49121;38.932;-9.018;2023-04-06T06:25:24;111992.50;;;-145.11;53.34
63033;BME280;49121;38.932;-9.018;2023-04-06T06:27:43;111992.50;;;-145.11;52.98
63033;BME280;49121;38.932;-9.018;2023-04-06T06:30:05;111992.50;;;-145.11;52.87
63033;BME280;49121;38.932;-9.018;2023-04-06T06:32:25;111992.50;;;-145.11;53.09
63033;BME280;49121;38.932;-9.018;2023-04-06T06:34:27;111992.50;;;-145.11;52.77
63033;BME280;49121;38.932;-9.018;2023-04-06T06:36:31;111992.50;;;-145.11;53.11
63033;BME280;49121;38.932;-9.018;2023-04-06T06:38:32;111992.50;;;-145.11;53.31
63033;BME280;49121;38.932;-9.018;2023-04-06T06:43:10;111992.50;;;-145.11;53.48
63033;BME280;49121;38.932;-9.018;2023-04-06T06:45:23;111992.50;;;-145.11;53.48
63033;BME280;49121;38.932;-9.018;2023-04-06T06:47:25;111992.50;;;-145.11;53.17
63033;BME280;49121;38.932;-9.018;2023-04-06T06:49:26;111992.50;;;-145.11;52.70
63033;BME280;49121;38.932;-9.018;2023-04-06T06:56:42;111992.50;;;-145.11;52.67
63033;BME280;49121;38.932;-9.018;2023-04-06T06:58:43;111992.50;;;-145.11;52.21
63033;BME280;49121;38.932;-9.018;2023-04-06T07:00:44;111992.50;;;-145.11;52.18
63033;BME280;49121;38.932;-9.018;2023-04-06T07:02:45;111992.50;;;-145.11;51.00
63033;BME280;49121;38.932;-9.018;2023-04-06T07:04:49;111992.50;;;-145.11;48.75
63033;BME280;49121;38.932;-9.018;2023-04-06T07:06:50;111992.50;;;-145.11;46.39
63033;BME280;49121;38.932;-9.018;2023-04-06T07:08:51;111992.50;;;-145.11;43.48
63033;BME280;49121;38.932;-9.018;2023-04-06T07:10:52;111992.50;;;-145.11;41.18
63033;BME280;49121;38.932;-9.018;2023-04-06T07:12:53;111992.50;;;-145.11;39.38
63033;BME280;49121;38.932;-9.018;2023-04-06T07:14:53;111992.50;;;-145.11;37.79
63033;BME280;49121;38.932;-9.018;2023-04-06T07:19:31;111992.50;;;-145.11;35.20
63033;BME280;49121;38.932;-9.018;2023-04-06T07:21:32;111992.50;;;-145.11;34.34
63033;BME280;49121;38.932;-9.018;2023-04-06T07:23:32;111992.50;;;-145.11;34.78
63033;BME280;49121;38.932;-9.018;2023-04-06T07:25:33;111992.50;;;-145.11;34.82
63033;BME280;49121;38.932;-9.018;2023-04-06T07:27:33;111992.50;;;-145.11;34.58
63033;BME280;49121;38.932;-9.018;2023-04-06T07:29:34;111992.50;;;-145.11;33.88
63033;BME280;49121;38.932;-9.018;2023-04-06T07:33:55;111992.50;;;-145.11;32.92
63033;BME280;49121;38.932;-9.018;2023-04-06T07:35:56;111992.50;;;-145.11;32.61
63033;BME280;49121;38.932;-9.018;2023-04-06T07:37:58;111992.50;;;-145.11;31.96
63033;BME280;49121;38.932;-9.018;2023-04-06T07:39:59;111992.50;;;-145.11;31.70
63033;BME280;49121;38.932;-9.018;2023-04-06T07:42:00;111992.50;;;-145.11;31.83
63033;BME280;49121;38.932;-9.018;2023-04-06T07:44:01;111992.50;;;-145.11;32.54
63033;BME280;49121;38.932;-9.018;2023-04-06T07:46:02;111992.50;;;-145.11;33.36
63033;BME280;49121;38.932;-9.018;2023-04-06T07:48:03;111992.50;;;-145.11;33.97
63033;BME280;49121;38.932;-9.018;2023-04-06T07:50:22;111992.50;;;-145.11;34.71
63033;BME280;49121;38.932;-9.018;2023-04-06T07:52:23;111992.50;;;-145.11;34.78
63033;BME280;49121;38.932;-9.018;2023-04-06T07:54:24;111992.50;;;-145.11;34.66
63033;BME280;49121;38.932;-9.018;2023-04-06T07:56:43;111992.50;;;-145.11;34.16
63033;BME280;49121;38.932;-9.018;2023-04-06T07:58:43;111992.50;;;-145.11;33.84
63033;BME280;49121;38.932;-9.018;2023-04-06T08:00:56;111992.50;;;-145.11;33.56
63033;BME280;49121;38.932;-9.018;2023-04-06T08:02:58;111992.50;;;-145.11;33.79
63033;BME280;49121;38.932;-9.018;2023-04-06T08:04:58;111992.50;;;-145.11;33.79
63033;BME280;49121;38.932;-9.018;2023-04-06T08:06:59;111992.50;;;-145.11;33.42
63033;BME280;49121;38.932;-9.018;2023-04-06T08:08:59;111992.50;;;-145.11;32.87
63033;BME280;49121;38.932;-9.018;2023-04-06T08:11:00;111992.50;;;-145.11;32.03
63033;BME280;49121;38.932;-9.018;2023-04-06T08:15:21;111992.50;;;-145.11;31.31
63033;BME280;49121;38.932;-9.018;2023-04-06T08:17:22;111992.50;;;-145.11;31.19
63033;BME280;49121;38.932;-9.018;2023-04-06T08:19:23;111992.50;;;-145.11;30.84
63033;BME280;49121;38.932;-9.018;2023-04-06T08:21:42;111992.50;;;-145.11;30.53
63033;BME280;49121;38.932;-9.018;2023-04-06T08:23:42;111992.50;;;-145.11;30.35
63033;BME280;49121;38.932;-9.018;2023-04-06T08:25:43;111992.50;;;-145.11;31.68
63033;BME280;49121;38.932;-9.018;2023-04-06T08:27:44;111992.50;;;-145.11;32.10
63033;BME280;49121;38.932;-9.018;2023-04-06T08:29:44;111992.50;;;-145.11;32.88
63033;BME280;49121;38.932;-9.018;2023-04-06T08:32:03;111992.50;;;-145.11;33.10
63033;BME280;49121;38.932;-9.018;2023-04-06T08:34:23;111992.50;;;-145.11;34.02
63033;BME280;49121;38.932;-9.018;2023-04-06T08:36:24;111992.50;;;-145.11;34.08
63033;BME280;49121;38.932;-9.018;2023-04-06T08:38:43;111992.50;;;-145.11;33.54
63033;BME280;49121;38.932;-9.018;2023-04-06T08:40:44;111992.50;;;-145.11;32.19
63033;BME280;49121;38.932;-9.018;2023-04-06T08:42:46;111992.50;;;-145.11;30.59
63033;BME280;49121;38.932;-9.018;2023-04-06T08:44:49;111992.50;;;-145.11;24.11
63033;BME280;49121;38.932;-9.018;2023-04-06T08:46:52;111992.50;;;-145.11;22.80
63033;BME280;49121;38.932;-9.018;2023-04-06T08:48:53;111992.50;;;-145.11;23.04
63033;BME280;49121;38.932;-9.018;2023-04-06T08:50:53;111992.50;;;-145.11;22.77
63033;BME280;49121;38.932;-9.018;2023-04-06T08:53:13;111992.50;;;-145.11;21.85
63033;BME280;49121;38.932;-9.018;2023-04-06T08:57:33;111992.50;;;-145.11;21.81
63033;BME280;49121;38.932;-9.018;2023-04-06T09:04:14;111992.50;;;-145.11;21.96
63033;BME280;49121;38.932;-9.018;2023-04-06T09:06:15;111992.50;;;-145.11;21.39
63033;BME280;49121;38.932;-9.018;2023-04-06T09:08:15;111992.50;;;-145.11;21.26
63033;BME280;49121;38.932;-9.018;2023-04-06T09:10:16;111992.50;;;-145.11;21.63
63033;BME280;49121;38.932;-9.018;2023-04-06T09:12:27;111992.50;;;-145.11;21.49
63033;BME280;49121;38.932;-9.018;2023-04-06T09:14:34;111992.50;;;-145.11;20.11
63033;BME280;49121;38.932;-9.018;2023-04-06T09:16:42;111992.50;;;-145.11;20.25
63033;BME280;49121;38.932;-9.018;2023-04-06T09:18:43;111992.50;;;-145.11;25.53
63033;BME280;49121;38.932;-9.018;2023-04-06T09:20:44;111992.50;;;-145.11;26.13
63033;BME280;49121;38.932;-9.018;2023-04-06T09:22:45;111992.50;;;-145.11;21.22
63033;BME280;49121;38.932;-9.018;2023-04-06T09:24:46;111992.50;;;-145.11;25.29
63033;BME280;49121;38.932;-9.018;2023-04-06T09:26:47;111992.50;;;-145.11;26.25
63033;BME280;49121;38.932;-9.018;2023-04-06T09:28:49;111992.50;;;-145.11;26.10
63033;BME280;49121;38.932;-9.018;2023-04-06T09:30:50;111992.50;;;-145.11;25.99
63033;BME280;49121;38.932;-9.018;2023-04-06T09:37:31;111992.50;;;-145.11;24.15
63033;BME280;49121;38.932;-9.018;2023-04-06T09:39:31;111992.50;;;-145.11;25.28
63033;BME280;49121;38.932;-9.018;2023-04-06T09:41:51;111992.50;;;-145.11;24.43
63033;BME280;49121;38.932;-9.018;2023-04-06T09:43:52;111992.50;;;-145.11;21.82
63033;BME280;49121;38.932;-9.018;2023-04-06T09:46:01;111992.50;;;-145.11;20.78
63033;BME280;49121;38.932;-9.018;2023-04-06T09:48:03;111992.50;;;-145.11;19.09
63033;BME280;49121;38.932;-9.018;2023-04-06T09:50:04;111992.50;;;-145.11;19.08
63033;BME280;49121;38.932;-9.018;2023-04-06T09:54:25;111992.50;;;-145.11;19.51
63033;BME280;49121;38.932;-9.018;2023-04-06T09:58:47;111992.50;;;-145.11;19.76
63033;BME280;49121;38.932;-9.018;2023-04-06T10:01:03;111992.50;;;-145.11;19.82
63033;BME280;49121;38.932;-9.018;2023-04-06T10:03:21;111992.50;;;-145.11;19.10
63033;BME280;49121;38.932;-9.018;2023-04-06T10:07:45;111992.50;;;-145.11;18.49
63033;BME280;49121;38.932;-9.018;2023-04-06T10:09:46;111992.50;;;-145.11;18.42
63033;BME280;49121;38.932;-9.018;2023-04-06T10:11:47;111992.50;;;-145.11;19.26
63033;BME280;49121;38.932;-9.018;2023-04-06T10:13:48;111992.50;;;-145.11;20.42
63033;BME280;49121;38.932;-9.018;2023-04-06T10:16:07;111992.50;;;-145.11;19.97
63033;BME280;49121;38.932;-9.018;2023-04-06T10:18:08;111992.50;;;-145.11;20.90
63033;BME280;49121;38.932;-9.018;2023-04-06T10:25:07;111992.50;;;-145.11;21.96
63033;BME280;49121;38.932;-9.018;2023-04-06T10:27:08;111992.50;;;-145.11;21.96
63033;BME280;49121;38.932;-9.018;2023-04-06T10:29:11;111992.50;;;-145.11;22.34
63033;BME280;49121;38.932;-9.018;2023-04-06T10:31:11;111992.50;;;-145.11;23.28
63033;BME280;49121;38.932;-9.018;2023-04-06T10:33:16;111992.50;;;-145.11;24.00
63033;BME280;49121;38.932;-9.018;2023-04-06T10:35:16;111992.50;;;-145.11;24.24
63033;BME280;49121;38.932;-9.018;2023-04-06T10:37:17;111992.50;;;-145.11;24.75
63033;BME280;49121;38.932;-9.018;2023-04-06T10:39:24;111992.50;;;-145.11;25.26
63033;BME280;49121;38.932;-9.018;2023-04-06T10:41:34;111992.50;;;-145.11;24.63
63033;BME280;49121;38.932;-9.018;2023-04-06T10:43:36;111992.50;;;-145.11;23.68
63033;BME280;49121;38.932;-9.018;2023-04-06T10:45:36;111992.50;;;-145.11;24.00
63033;BME280;49121;38.932;-9.018;2023-04-06T10:47:40;111992.50;;;-145.11;24.26
63033;BME280;49121;38.932;-9.018;2023-04-06T10:49:41;111992.50;;;-145.11;23.80
63033;BME280;49121;38.932;-9.018;2023-04-06T10:51:41;111992.50;;;-145.11;22.57
63033;BME280;49121;38.932;-9.018;2023-04-06T10:53:43;111992.50;;;-145.11;23.10
63033;BME280;49121;38.932;-9.018;2023-04-06T10:55:44;111992.50;;;-145.11;22.89
63033;BME280;49121;38.932;-9.018;2023-04-06T10:57:46;111992.50;;;-145.11;23.37
63033;BME280;49121;38.932;-9.018;2023-04-06T10:59:46;111992.50;;;-145.11;23.44
63033;BME280;49121;38.932;-9.018;2023-04-06T11:01:47;111992.50;;;-145.11;23.56
63033;BME280;49121;38.932;-9.018;2023-04-06T11:03:51;111992.50;;;-145.11;23.57
63033;BME280;49121;38.932;-9.018;2023-04-06T11:06:10;111992.50;;;-145.11;23.20
63033;BME280;49121;38.932;-9.018;2023-04-06T11:08:27;111992.50;;;-145.11;22.69
63033;BME280;49121;38.932;-9.018;2023-04-06T11:10:27;111992.50;;;-145.11;22.66
63033;BME280;49121;38.932;-9.018;2023-04-06T11:12:30;111992.50;;;-145.11;22.13
63033;BME280;49121;38.932;-9.018;2023-04-06T11:14:31;111992.50;;;-145.11;22.13
63033;BME280;49121;38.932;-9.018;2023-04-06T11:16:31;111992.50;;;-145.11;21.87
63033;BME280;49121;38.932;-9.018;2023-04-06T11:23:30;111992.50;;;-145.11;21.15
63033;BME280;49121;38.932;-9.018;2023-04-06T11:25:50;111992.50;;;-145.11;21.36
63033;BME280;49121;38.932;-9.018;2023-04-06T11:33:06;111992.50;;;-145.11;21.46
63033;BME280;49121;38.932;-9.018;2023-04-06T11:35:07;111992.50;;;-145.11;21.42
63033;BME280;49121;38.932;-9.018;2023-04-06T11:37:08;111992.50;;;-145.11;21.54
63033;BME280;49121;38.932;-9.018;2023-04-06T11:39:09;111992.50;;;-145.11;21.92
63033;BME280;49121;38.932;-9.018;2023-04-06T11:41:10;111992.50;;;-145.11;21.44
63033;BME280;49121;38.932;-9.018;2023-04-06T11:43:11;111992.50;;;-145.11;20.97
63033;BME280;49121;38.932;-9.018;2023-04-06T11:45:39;111992.50;;;-145.11;21.23
63033;BME280;49121;38.932;-9.018;2023-04-06T11:47:39;111992.50;;;-145.11;21.08
63033;BME280;49121;38.932;-9.018;2023-04-06T11:49:40;111992.50;;;-145.11;21.02
63033;BME280;49121;38.932;-9.018;2023-04-06T11:51:42;111992.50;;;-145.11;21.31
63033;BME280;49121;38.932;-9.018;2023-04-06T11:53:45;111992.50;;;-145.11;21.03
63033;BME280;49121;38.932;-9.018;2023-04-06T11:58:24;111992.50;;;-145.11;20.01
63033;BME280;49121;38.932;-9.018;2023-04-06T12:00:43;111992.50;;;-145.11;20.65
63033;BME280;49121;38.932;-9.018;2023-04-06T12:02:46;111992.50;;;-145.11;20.67
63033;BME280;49121;38.932;-9.018;2023-04-06T12:04:46;111992.50;;;-145.11;20.08
63033;BME280;49121;38.932;-9.018;2023-04-06T12:06:47;111992.50;;;-145.11;20.53
63033;BME280;49121;38.932;-9.018;2023-04-06T12:09:07;111992.50;;;-145.11;20.04
63033;BME280;49121;38.932;-9.018;2023-04-06T12:11:07;111992.50;;;-145.11;20.27
63033;BME280;49121;38.932;-9.018;2023-04-06T12:15:27;111992.50;;;-145.11;20.50
63033;BME280;49121;38.932;-9.018;2023-04-06T12:17:28;111992.50;;;-145.11;19.95
63033;BME280;49121;38.932;-9.018;2023-04-06T12:21:47;111992.50;;;-145.11;20.16
63033;BME280;49121;38.932;-9.018;2023-04-06T12:23:48;111992.50;;;-145.11;20.81
63033;BME280;49121;38.932;-9.018;2023-04-06T12:25:49;111992.50;;;-145.11;20.58